sensor_id;sensor_type;location;lat;lon;timestamp;P1;durP1;ratioP1;P2;durP2;ratioP2
6667;SDS011;3370;47.712;9.082;2023-04-03T00:01:01;5.33;;;4.63;;
6667;SDS011;3370;47.712;9.082;2023-04-03T00:03:28;5.83;;;5.23;;
6667;SDS011;3370;47.712;9.082;2023-04-03T00:05:54;4.93;;;4.53;;
6667;SDS011;3370;47.712;9.082;2023-04-03T00:08:20;5.20;;;4.80;;
6667;SDS011;3370;47.712;9.082;2023-04-03T00:10:45;5.20;;;4.70;;
6667;SDS011;3370;47.712;9.082;2023-04-03T00:13:11;7.13;;;5.03;;
6667;SDS011;3370;47.712;9.082;2023-04-03T00:15:37;5.53;;;5.03;;
6667;SDS011;3370;47.712;9.082;2023-04-03T00:18:04;6.20;;;4.90;;
6667;SDS011;3370;47.712;9.082;2023-04-03T00:20:31;5.40;;;4.90;;
6667;SDS011;3370;47.712;9.082;2023-04-03T00:22:58;6.13;;;5.30;;
6667;SDS011;3370;47.712;9.082;2023-04-03T00:25:24;6.10;;;5.47;;
6667;SDS011;3370;47.712;9.082;2023-04-03T00:27:50;5.63;;;5.10;;
6667;SDS011;3370;47.712;9.082;2023-04-03T00:30:17;5.63;;;5.13;;
6667;SDS011;3370;47.712;9.082;2023-04-03T00:32:47;5.70;;;5.13;;
6667;SDS011;3370;47.712;9.082;2023-04-03T00:35:13;5.00;;;4.60;;
6667;SDS011;3370;47.712;9.082;2023-04-03T00:37:41;6.13;;;5.40;;
6667;SDS011;3370;47.712;9.082;2023-04-03T00:40:08;5.37;;;4.50;;
6667;SDS011;3370;47.712;9.082;2023-04-03T00:42:39;6.10;;;5.50;;
6667;SDS011;3370;47.712;9.082;2023-04-03T00:47:36;5.77;;;5.27;;
6667;SDS011;3370;47.712;9.082;2023-04-03T00:50:03;5.03;;;4.60;;
6667;SDS011;3370;47.712;9.082;2023-04-03T00:52:30;5.60;;;5.13;;
6667;SDS011;3370;47.712;9.082;2023-04-03T00:54:57;7.13;;;5.30;;
6667;SDS011;3370;47.712;9.082;2023-04-03T00:57:29;5.73;;;5.10;;
6667;SDS011;3370;47.712;9.082;2023-04-03T00:59:57;5.50;;;5.00;;
6667;SDS011;3370;47.712;9.082;2023-04-03T01:02:29;5.53;;;5.07;;
6667;SDS011;3370;47.712;9.082;2023-04-03T01:04:55;6.87;;;5.53;;
6667;SDS011;3370;47.712;9.082;2023-04-03T01:07:22;5.50;;;5.00;;
6667;SDS011;3370;47.712;9.082;2023-04-03T01:09:53;7.43;;;5.37;;
6667;SDS011;3370;47.712;9.082;2023-04-03T01:12:24;6.20;;;5.50;;
6667;SDS011;3370;47.712;9.082;2023-04-03T01:14:54;6.00;;;5.40;;
6667;SDS011;3370;47.712;9.082;2023-04-03T01:17:51;5.87;;;5.40;;
6667;SDS011;3370;47.712;9.082;2023-04-03T01:25:35;6.30;;;5.47;;
6667;SDS011;3370;47.712;9.082;2023-04-03T01:28:05;6.30;;;5.70;;
6667;SDS011;3370;47.712;9.082;2023-04-03T01:30:34;5.97;;;5.30;;
6667;SDS011;3370;47.712;9.082;2023-04-03T01:33:19;7.20;;;5.20;;
6667;SDS011;3370;47.712;9.082;2023-04-03T01:35:45;5.83;;;5.23;;
6667;SDS011;3370;47.712;9.082;2023-04-03T01:38:11;5.40;;;4.90;;
6667;SDS011;3370;47.712;9.082;2023-04-03T01:40:36;5.60;;;5.20;;
6667;SDS011;3370;47.712;9.082;2023-04-03T01:43:02;5.27;;;4.87;;
6667;SDS011;3370;47.712;9.082;2023-04-03T01:45:28;5.20;;;4.67;;
6667;SDS011;3370;47.712;9.082;2023-04-03T01:47:54;5.73;;;4.40;;
6667;SDS011;3370;47.712;9.082;2023-04-03T01:50:20;5.20;;;4.80;;
6667;SDS011;3370;47.712;9.082;2023-04-03T01:52:45;5.57;;;5.13;;
6667;SDS011;3370;47.712;9.082;2023-04-03T01:55:11;5.00;;;4.60;;
6667;SDS011;3370;47.712;9.082;2023-04-03T01:57:37;5.63;;;5.13;;
6667;SDS011;3370;47.712;9.082;2023-04-03T02:00:03;5.30;;;4.90;;
6667;SDS011;3370;47.712;9.082;2023-04-03T02:02:29;4.87;;;4.50;;
6667;SDS011;3370;47.712;9.082;2023-04-03T02:04:55;4.00;;;3.60;;
6667;SDS011;3370;47.712;9.082;2023-04-03T02:07:21;4.40;;;4.10;;
6667;SDS011;3370;47.712;9.082;2023-04-03T02:09:47;4.57;;;4.27;;
6667;SDS011;3370;47.712;9.082;2023-04-03T02:12:13;4.00;;;3.80;;
6667;SDS011;3370;47.712;9.082;2023-04-03T02:14:38;4.23;;;4.00;;
6667;SDS011;3370;47.712;9.082;2023-04-03T02:17:04;4.80;;;4.40;;
6667;SDS011;3370;47.712;9.082;2023-04-03T02:19:33;4.73;;;4.33;;
6667;SDS011;3370;47.712;9.082;2023-04-03T02:22:01;7.00;;;5.17;;
6667;SDS011;3370;47.712;9.082;2023-04-03T02:24:28;4.63;;;4.23;;
6667;SDS011;3370;47.712;9.082;2023-04-03T02:26:54;4.67;;;4.33;;
6667;SDS011;3370;47.712;9.082;2023-04-03T02:29:20;5.83;;;5.40;;
6667;SDS011;3370;47.712;9.082;2023-04-03T02:31:46;5.90;;;5.40;;
6667;SDS011;3370;47.712;9.082;2023-04-03T02:34:11;5.30;;;4.80;;
6667;SDS011;3370;47.712;9.082;2023-04-03T02:36:37;6.30;;;5.47;;
6667;SDS011;3370;47.712;9.082;2023-04-03T02:39:03;6.03;;;5.53;;
6667;SDS011;3370;47.712;9.082;2023-04-03T02:41:30;5.90;;;5.40;;
6667;SDS011;3370;47.712;9.082;2023-04-03T02:44:00;7.30;;;6.30;;
6667;SDS011;3370;47.712;9.082;2023-04-03T02:46:28;6.70;;;6.10;;
6667;SDS011;3370;47.712;9.082;2023-04-03T02:48:54;6.93;;;6.33;;
6667;SDS011;3370;47.712;9.082;2023-04-03T02:51:19;5.90;;;5.40;;
6667;SDS011;3370;47.712;9.082;2023-04-03T02:53:46;6.53;;;5.93;;
6667;SDS011;3370;47.712;9.082;2023-04-03T02:56:11;7.60;;;5.60;;
6667;SDS011;3370;47.712;9.082;2023-04-03T02:58:37;6.20;;;5.70;;
6667;SDS011;3370;47.712;9.082;2023-04-03T03:01:03;6.80;;;6.20;;
6667;SDS011;3370;47.712;9.082;2023-04-03T03:03:29;6.40;;;5.80;;
6667;SDS011;3370;47.712;9.082;2023-04-03T03:06:04;6.40;;;5.77;;
6667;SDS011;3370;47.712;9.082;2023-04-03T03:08:36;7.33;;;6.00;;
6667;SDS011;3370;47.712;9.082;2023-04-03T03:11:02;7.20;;;6.33;;
6667;SDS011;3370;47.712;9.082;2023-04-03T03:13:29;7.50;;;6.70;;
6667;SDS011;3370;47.712;9.082;2023-04-03T03:15:56;10.40;;;6.60;;
6667;SDS011;3370;47.712;9.082;2023-04-03T03:18:22;8.00;;;6.43;;
6667;SDS011;3370;47.712;9.082;2023-04-03T03:20:51;6.60;;;6.00;;
6667;SDS011;3370;47.712;9.082;2023-04-03T03:23:19;7.30;;;6.20;;
6667;SDS011;3370;47.712;9.082;2023-04-03T03:25:45;6.80;;;5.73;;
6667;SDS011;3370;47.712;9.082;2023-04-03T03:28:11;6.93;;;6.30;;
6667;SDS011;3370;47.712;9.082;2023-04-03T03:30:37;6.10;;;5.60;;
6667;SDS011;3370;47.712;9.082;2023-04-03T03:33:03;6.17;;;5.60;;
6667;SDS011;3370;47.712;9.082;2023-04-03T03:35:29;5.87;;;5.37;;
6667;SDS011;3370;47.712;9.082;2023-04-03T03:37:54;5.83;;;5.37;;
6667;SDS011;3370;47.712;9.082;2023-04-03T03:40:20;6.57;;;5.53;;
6667;SDS011;3370;47.712;9.082;2023-04-03T03:42:46;6.10;;;5.37;;
6667;SDS011;3370;47.712;9.082;2023-04-03T03:45:12;6.60;;;6.10;;
6667;SDS011;3370;47.712;9.082;2023-04-03T03:47:38;5.70;;;5.20;;
6667;SDS011;3370;47.712;9.082;2023-04-03T03:50:05;5.93;;;5.43;;
6667;SDS011;3370;47.712;9.082;2023-04-03T03:52:31;6.53;;;5.67;;
6667;SDS011;3370;47.712;9.082;2023-04-03T03:54:57;5.70;;;5.20;;
6667;SDS011;3370;47.712;9.082;2023-04-03T03:57:23;6.67;;;6.03;;
6667;SDS011;3370;47.712;9.082;2023-04-03T03:59:48;5.77;;;5.33;;
6667;SDS011;3370;47.712;9.082;2023-04-03T04:02:16;4.80;;;4.50;;
6667;SDS011;3370;47.712;9.082;2023-04-03T04:04:42;5.00;;;4.60;;
6667;SDS011;3370;47.712;9.082;2023-04-03T04:07:07;6.13;;;4.70;;
6667;SDS011;3370;47.712;9.082;2023-04-03T04:09:33;4.90;;;4.50;;
6667;SDS011;3370;47.712;9.082;2023-04-03T04:11:59;4.87;;;4.43;;
6667;SDS011;3370;47.712;9.082;2023-04-03T04:14:25;5.27;;;4.23;;
6667;SDS011;3370;47.712;9.082;2023-04-03T04:16:51;4.40;;;4.00;;
6667;SDS011;3370;47.712;9.082;2023-04-03T04:19:17;4.10;;;3.80;;
6667;SDS011;3370;47.712;9.082;2023-04-03T04:21:42;3.80;;;3.50;;
6667;SDS011;3370;47.712;9.082;2023-04-03T04:24:08;4.00;;;3.70;;
6667;SDS011;3370;47.712;9.082;2023-04-03T04:26:34;4.90;;;4.40;;
6667;SDS011;3370;47.712;9.082;2023-04-03T04:29:00;3.73;;;3.43;;
6667;SDS011;3370;47.712;9.082;2023-04-03T04:31:26;4.87;;;4.00;;
6667;SDS011;3370;47.712;9.082;2023-04-03T04:33:52;5.80;;;4.00;;
6667;SDS011;3370;47.712;9.082;2023-04-03T04:36:18;3.60;;;3.37;;
6667;SDS011;3370;47.712;9.082;2023-04-03T04:38:44;4.60;;;4.30;;
6667;SDS011;3370;47.712;9.082;2023-04-03T04:41:09;4.17;;;3.73;;
6667;SDS011;3370;47.712;9.082;2023-04-03T04:43:35;4.10;;;3.80;;
6667;SDS011;3370;47.712;9.082;2023-04-03T04:46:02;3.80;;;3.53;;
6667;SDS011;3370;47.712;9.082;2023-04-03T04:48:30;3.77;;;3.47;;
6667;SDS011;3370;47.712;9.082;2023-04-03T04:50:56;4.20;;;3.90;;
6667;SDS011;3370;47.712;9.082;2023-04-03T04:53:22;3.97;;;3.67;;
6667;SDS011;3370;47.712;9.082;2023-04-03T04:55:48;4.33;;;4.03;;
6667;SDS011;3370;47.712;9.082;2023-04-03T04:58:13;5.10;;;4.27;;
6667;SDS011;3370;47.712;9.082;2023-04-03T05:00:40;3.97;;;3.70;;
6667;SDS011;3370;47.712;9.082;2023-04-03T05:03:05;5.87;;;3.43;;
6667;SDS011;3370;47.712;9.082;2023-04-03T05:05:31;12.53;;;6.90;;
6667;SDS011;3370;47.712;9.082;2023-04-03T05:07:57;4.40;;;4.10;;
6667;SDS011;3370;47.712;9.082;2023-04-03T05:10:23;4.27;;;3.97;;
6667;SDS011;3370;47.712;9.082;2023-04-03T05:12:48;3.37;;;3.17;;
6667;SDS011;3370;47.712;9.082;2023-04-03T05:15:14;6.53;;;3.70;;
6667;SDS011;3370;47.712;9.082;2023-04-03T05:17:40;3.50;;;3.30;;
6667;SDS011;3370;47.712;9.082;2023-04-03T05:20:06;4.23;;;3.93;;
6667;SDS011;3370;47.712;9.082;2023-04-03T05:22:32;4.13;;;3.30;;
6667;SDS011;3370;47.712;9.082;2023-04-03T05:24:58;3.77;;;3.47;;
6667;SDS011;3370;47.712;9.082;2023-04-03T05:27:23;3.80;;;3.60;;
6667;SDS011;3370;47.712;9.082;2023-04-03T05:29:50;3.73;;;3.43;;
6667;SDS011;3370;47.712;9.082;2023-04-03T05:32:17;3.20;;;3.00;;
6667;SDS011;3370;47.712;9.082;2023-04-03T05:34:43;3.40;;;3.10;;
6667;SDS011;3370;47.712;9.082;2023-04-03T05:37:09;3.87;;;3.47;;
6667;SDS011;3370;47.712;9.082;2023-04-03T05:39:35;3.40;;;3.20;;
6667;SDS011;3370;47.712;9.082;2023-04-03T05:42:03;3.57;;;3.37;;
6667;SDS011;3370;47.712;9.082;2023-04-03T05:44:29;4.00;;;3.60;;
6667;SDS011;3370;47.712;9.082;2023-04-03T05:46:55;3.40;;;3.20;;
6667;SDS011;3370;47.712;9.082;2023-04-03T05:49:20;3.97;;;3.60;;
6667;SDS011;3370;47.712;9.082;2023-04-03T05:51:46;3.70;;;3.40;;
6667;SDS011;3370;47.712;9.082;2023-04-03T05:54:13;3.70;;;3.40;;
6667;SDS011;3370;47.712;9.082;2023-04-03T05:56:48;3.80;;;3.60;;
6667;SDS011;3370;47.712;9.082;2023-04-03T05:59:15;4.13;;;3.50;;
6667;SDS011;3370;47.712;9.082;2023-04-03T06:01:42;2.90;;;2.70;;
6667;SDS011;3370;47.712;9.082;2023-04-03T06:04:08;3.60;;;3.40;;
6667;SDS011;3370;47.712;9.082;2023-04-03T06:09:17;3.73;;;3.23;;
6667;SDS011;3370;47.712;9.082;2023-04-03T06:11:45;5.63;;;3.00;;
6667;SDS011;3370;47.712;9.082;2023-04-03T06:14:11;2.93;;;2.83;;
6667;SDS011;3370;47.712;9.082;2023-04-03T06:16:37;5.67;;;3.77;;
6667;SDS011;3370;47.712;9.082;2023-04-03T06:19:04;3.30;;;3.00;;
6667;SDS011;3370;47.712;9.082;2023-04-03T06:21:32;2.90;;;2.70;;
6667;SDS011;3370;47.712;9.082;2023-04-03T06:23:58;3.33;;;3.13;;
6667;SDS011;3370;47.712;9.082;2023-04-03T06:26:23;6.50;;;4.03;;
6667;SDS011;3370;47.712;9.082;2023-04-03T06:28:49;3.73;;;3.07;;
6667;SDS011;3370;47.712;9.082;2023-04-03T06:31:15;7.43;;;3.70;;
6667;SDS011;3370;47.712;9.082;2023-04-03T06:33:41;8.23;;;4.30;;
6667;SDS011;3370;47.712;9.082;2023-04-03T06:36:09;3.87;;;3.50;;
6667;SDS011;3370;47.712;9.082;2023-04-03T06:38:36;3.97;;;3.43;;
6667;SDS011;3370;47.712;9.082;2023-04-03T06:41:02;3.30;;;3.10;;
6667;SDS011;3370;47.712;9.082;2023-04-03T06:43:28;2.97;;;2.77;;
6667;SDS011;3370;47.712;9.082;2023-04-03T06:45:56;3.57;;;3.10;;
6667;SDS011;3370;47.712;9.082;2023-04-03T06:48:22;2.87;;;2.67;;
6667;SDS011;3370;47.712;9.082;2023-04-03T06:50:48;3.60;;;3.30;;
6667;SDS011;3370;47.712;9.082;2023-04-03T06:53:14;3.60;;;3.30;;
6667;SDS011;3370;47.712;9.082;2023-04-03T06:55:40;3.90;;;3.60;;
6667;SDS011;3370;47.712;9.082;2023-04-03T06:58:06;3.40;;;3.20;;
6667;SDS011;3370;47.712;9.082;2023-04-03T07:00:32;3.53;;;3.23;;
6667;SDS011;3370;47.712;9.082;2023-04-03T07:02:58;6.77;;;6.10;;
6667;SDS011;3370;47.712;9.082;2023-04-03T07:05:24;3.80;;;3.40;;
6667;SDS011;3370;47.712;9.082;2023-04-03T07:07:51;5.13;;;3.50;;
6667;SDS011;3370;47.712;9.082;2023-04-03T07:10:17;3.63;;;3.43;;
6667;SDS011;3370;47.712;9.082;2023-04-03T07:12:43;3.80;;;3.40;;
6667;SDS011;3370;47.712;9.082;2023-04-03T07:15:09;3.97;;;3.57;;
6667;SDS011;3370;47.712;9.082;2023-04-03T07:17:37;3.70;;;3.37;;
6667;SDS011;3370;47.712;9.082;2023-04-03T07:20:04;3.43;;;3.20;;
6667;SDS011;3370;47.712;9.082;2023-04-03T07:22:30;4.17;;;3.87;;
6667;SDS011;3370;47.712;9.082;2023-04-03T07:24:56;4.33;;;3.63;;
6667;SDS011;3370;47.712;9.082;2023-04-03T07:27:23;4.30;;;3.93;;
6667;SDS011;3370;47.712;9.082;2023-04-03T07:29:50;4.80;;;3.87;;
6667;SDS011;3370;47.712;9.082;2023-04-03T07:32:16;4.77;;;4.30;;
6667;SDS011;3370;47.712;9.082;2023-04-03T07:34:42;4.37;;;3.50;;
6667;SDS011;3370;47.712;9.082;2023-04-03T07:37:09;7.00;;;3.50;;
6667;SDS011;3370;47.712;9.082;2023-04-03T07:39:35;3.80;;;3.50;;
6667;SDS011;3370;47.712;9.082;2023-04-03T07:42:01;3.30;;;3.00;;
6667;SDS011;3370;47.712;9.082;2023-04-03T07:44:27;3.67;;;3.43;;
6667;SDS011;3370;47.712;9.082;2023-04-03T07:46:53;3.83;;;3.50;;
6667;SDS011;3370;47.712;9.082;2023-04-03T07:49:22;3.67;;;3.37;;
6667;SDS011;3370;47.712;9.082;2023-04-03T07:51:51;3.80;;;3.60;;
6667;SDS011;3370;47.712;9.082;2023-04-03T07:54:17;3.33;;;3.03;;
6667;SDS011;3370;47.712;9.082;2023-04-03T07:56:43;3.80;;;3.60;;
6667;SDS011;3370;47.712;9.082;2023-04-03T07:59:10;4.03;;;3.77;;
6667;SDS011;3370;47.712;9.082;2023-04-03T08:01:36;3.97;;;3.67;;
6667;SDS011;3370;47.712;9.082;2023-04-03T08:04:02;4.77;;;3.80;;
6667;SDS011;3370;47.712;9.082;2023-04-03T08:06:28;3.87;;;3.67;;
6667;SDS011;3370;47.712;9.082;2023-04-03T08:08:56;3.87;;;3.57;;
6667;SDS011;3370;47.712;9.082;2023-04-03T08:11:23;3.83;;;3.53;;
6667;SDS011;3370;47.712;9.082;2023-04-03T08:13:51;3.37;;;3.17;;
6667;SDS011;3370;47.712;9.082;2023-04-03T08:16:18;4.20;;;3.90;;
6667;SDS011;3370;47.712;9.082;2023-04-03T08:18:48;3.60;;;3.30;;
6667;SDS011;3370;47.712;9.082;2023-04-03T08:21:14;4.20;;;3.90;;
6667;SDS011;3370;47.712;9.082;2023-04-03T08:23:40;3.63;;;3.33;;
6667;SDS011;3370;47.712;9.082;2023-04-03T08:26:10;4.03;;;3.70;;
6667;SDS011;3370;47.712;9.082;2023-04-03T08:28:39;4.63;;;3.80;;
6667;SDS011;3370;47.712;9.082;2023-04-03T08:31:06;3.97;;;3.67;;
6667;SDS011;3370;47.712;9.082;2023-04-03T08:33:37;5.63;;;3.70;;
6667;SDS011;3370;47.712;9.082;2023-04-03T08:36:04;4.30;;;3.90;;
6667;SDS011;3370;47.712;9.082;2023-04-03T08:38:32;4.00;;;3.80;;
6667;SDS011;3370;47.712;9.082;2023-04-03T08:41:35;3.70;;;3.40;;
6667;SDS011;3370;47.712;9.082;2023-04-03T08:49:47;4.40;;;4.10;;
6667;SDS011;3370;47.712;9.082;2023-04-03T08:55:03;6.00;;;3.90;;
6667;SDS011;3370;47.712;9.082;2023-04-03T08:58:02;4.33;;;3.93;;
6667;SDS011;3370;47.712;9.082;2023-04-03T09:00:55;4.60;;;3.47;;
6667;SDS011;3370;47.712;9.082;2023-04-03T09:03:22;4.03;;;3.60;;
6667;SDS011;3370;47.712;9.082;2023-04-03T09:08:29;4.23;;;3.80;;
6667;SDS011;3370;47.712;9.082;2023-04-03T09:11:26;5.37;;;3.93;;
6667;SDS011;3370;47.712;9.082;2023-04-03T09:17:00;5.70;;;4.20;;
6667;SDS011;3370;47.712;9.082;2023-04-03T09:19:41;4.90;;;3.53;;
6667;SDS011;3370;47.712;9.082;2023-04-03T09:22:25;4.43;;;4.03;;
6667;SDS011;3370;47.712;9.082;2023-04-03T09:25:05;4.20;;;3.90;;
6667;SDS011;3370;47.712;9.082;2023-04-03T09:27:53;4.97;;;4.57;;
6667;SDS011;3370;47.712;9.082;2023-04-03T09:30:21;4.40;;;4.07;;
6667;SDS011;3370;47.712;9.082;2023-04-03T09:32:53;3.97;;;3.67;;
6667;SDS011;3370;47.712;9.082;2023-04-03T09:35:25;3.83;;;3.57;;
6667;SDS011;3370;47.712;9.082;2023-04-03T09:37:55;3.37;;;3.17;;
6667;SDS011;3370;47.712;9.082;2023-04-03T09:40:39;4.10;;;3.50;;
6667;SDS011;3370;47.712;9.082;2023-04-03T09:45:42;3.87;;;3.57;;
6667;SDS011;3370;47.712;9.082;2023-04-03T09:53:40;4.83;;;3.77;;
6667;SDS011;3370;47.712;9.082;2023-04-03T09:58:47;3.87;;;3.60;;
6667;SDS011;3370;47.712;9.082;2023-04-03T10:01:26;5.43;;;3.80;;
6667;SDS011;3370;47.712;9.082;2023-04-03T10:04:17;4.20;;;3.80;;
6667;SDS011;3370;47.712;9.082;2023-04-03T10:06:49;3.37;;;3.10;;
6667;SDS011;3370;47.712;9.082;2023-04-03T10:12:00;4.90;;;3.27;;
6667;SDS011;3370;47.712;9.082;2023-04-03T10:14:32;3.37;;;3.07;;
6667;SDS011;3370;47.712;9.082;2023-04-03T10:20:19;4.13;;;3.20;;
6667;SDS011;3370;47.712;9.082;2023-04-03T10:23:12;3.53;;;3.23;;
6667;SDS011;3370;47.712;9.082;2023-04-03T10:26:09;4.43;;;4.03;;
6667;SDS011;3370;47.712;9.082;2023-04-03T10:35:44;3.83;;;3.53;;
6667;SDS011;3370;47.712;9.082;2023-04-03T10:44:11;4.30;;;4.00;;
6667;SDS011;3370;47.712;9.082;2023-04-03T10:47:07;4.33;;;3.60;;
6667;SDS011;3370;47.712;9.082;2023-04-03T10:52:48;4.33;;;3.70;;
6667;SDS011;3370;47.712;9.082;2023-04-03T10:58:33;3.80;;;3.50;;
6667;SDS011;3370;47.712;9.082;2023-04-03T11:01:13;4.00;;;3.57;;
6667;SDS011;3370;47.712;9.082;2023-04-03T11:03:47;7.83;;;3.03;;
6667;SDS011;3370;47.712;9.082;2023-04-03T11:06:18;3.43;;;3.13;;
6667;SDS011;3370;47.712;9.082;2023-04-03T11:08:50;3.17;;;2.87;;
6667;SDS011;3370;47.712;9.082;2023-04-03T11:11:29;3.57;;;3.20;;
6667;SDS011;3370;47.712;9.082;2023-04-03T11:16:47;3.20;;;2.90;;
6667;SDS011;3370;47.712;9.082;2023-04-03T11:19:21;2.67;;;2.47;;
6667;SDS011;3370;47.712;9.082;2023-04-03T11:24:38;2.80;;;2.60;;
6667;SDS011;3370;47.712;9.082;2023-04-03T11:27:17;2.30;;;2.20;;
6667;SDS011;3370;47.712;9.082;2023-04-03T11:29:48;3.33;;;3.03;;
6667;SDS011;3370;47.712;9.082;2023-04-03T11:32:24;3.60;;;3.30;;
6667;SDS011;3370;47.712;9.082;2023-04-03T11:35:01;3.47;;;3.27;;
6667;SDS011;3370;47.712;9.082;2023-04-03T11:37:38;3.13;;;2.93;;
6667;SDS011;3370;47.712;9.082;2023-04-03T11:40:27;4.17;;;2.50;;
6667;SDS011;3370;47.712;9.082;2023-04-03T11:50:56;3.77;;;3.57;;
6667;SDS011;3370;47.712;9.082;2023-04-03T11:56:27;3.67;;;3.13;;
6667;SDS011;3370;47.712;9.082;2023-04-03T12:04:15;3.63;;;3.33;;
6667;SDS011;3370;47.712;9.082;2023-04-03T12:09:27;3.10;;;2.90;;
6667;SDS011;3370;47.712;9.082;2023-04-03T12:12:23;3.80;;;3.30;;
6667;SDS011;3370;47.712;9.082;2023-04-03T12:15:12;4.07;;;3.13;;
6667;SDS011;3370;47.712;9.082;2023-04-03T12:17:44;3.13;;;2.93;;
6667;SDS011;3370;47.712;9.082;2023-04-03T12:23:24;3.57;;;2.83;;
6667;SDS011;3370;47.712;9.082;2023-04-03T12:26:04;3.40;;;3.10;;
6667;SDS011;3370;47.712;9.082;2023-04-03T12:28:50;3.20;;;2.77;;
6667;SDS011;3370;47.712;9.082;2023-04-03T12:31:18;3.10;;;2.90;;
6667;SDS011;3370;47.712;9.082;2023-04-03T12:37:03;2.70;;;2.50;;
6667;SDS011;3370;47.712;9.082;2023-04-03T12:45:36;2.70;;;2.50;;
6667;SDS011;3370;47.712;9.082;2023-04-03T12:48:08;3.07;;;2.87;;
6667;SDS011;3370;47.712;9.082;2023-04-03T12:50:41;3.17;;;2.97;;
6667;SDS011;3370;47.712;9.082;2023-04-03T12:53:12;3.00;;;2.80;;
6667;SDS011;3370;47.712;9.082;2023-04-03T12:55:56;2.97;;;2.80;;
6667;SDS011;3370;47.712;9.082;2023-04-03T12:58:42;2.60;;;2.40;;
6667;SDS011;3370;47.712;9.082;2023-04-03T13:01:14;3.50;;;2.80;;
6667;SDS011;3370;47.712;9.082;2023-04-03T13:03:47;2.63;;;2.53;;
6667;SDS011;3370;47.712;9.082;2023-04-03T13:09:23;2.90;;;2.70;;
6667;SDS011;3370;47.712;9.082;2023-04-03T13:11:58;3.40;;;3.20;;
6667;SDS011;3370;47.712;9.082;2023-04-03T13:14:28;3.80;;;3.03;;
6667;SDS011;3370;47.712;9.082;2023-04-03T13:19:40;3.03;;;2.83;;
6667;SDS011;3370;47.712;9.082;2023-04-03T13:22:10;3.70;;;2.70;;
6667;SDS011;3370;47.712;9.082;2023-04-03T13:24:48;3.43;;;3.10;;
6667;SDS011;3370;47.712;9.082;2023-04-03T13:27:16;4.10;;;2.57;;
6667;SDS011;3370;47.712;9.082;2023-04-03T13:29:42;3.10;;;2.90;;
6667;SDS011;3370;47.712;9.082;2023-04-03T13:32:19;2.67;;;2.57;;
6667;SDS011;3370;47.712;9.082;2023-04-03T13:34:49;2.27;;;2.17;;
6667;SDS011;3370;47.712;9.082;2023-04-03T13:37:23;3.10;;;2.90;;
6667;SDS011;3370;47.712;9.082;2023-04-03T13:42:27;2.60;;;2.40;;
6667;SDS011;3370;47.712;9.082;2023-04-03T13:48:10;2.87;;;2.67;;
6667;SDS011;3370;47.712;9.082;2023-04-03T13:50:50;2.70;;;2.60;;
6667;SDS011;3370;47.712;9.082;2023-04-03T13:53:22;2.97;;;2.77;;
6667;SDS011;3370;47.712;9.082;2023-04-03T13:58:29;3.50;;;2.73;;
6667;SDS011;3370;47.712;9.082;2023-04-03T14:01:17;3.10;;;2.90;;
6667;SDS011;3370;47.712;9.082;2023-04-03T14:03:55;2.40;;;2.20;;
6667;SDS011;3370;47.712;9.082;2023-04-03T14:06:24;5.13;;;3.23;;
6667;SDS011;3370;47.712;9.082;2023-04-03T14:08:50;3.03;;;2.87;;
6667;SDS011;3370;47.712;9.082;2023-04-03T14:11:21;5.23;;;3.40;;
6667;SDS011;3370;47.712;9.082;2023-04-03T14:13:52;3.63;;;2.77;;
6667;SDS011;3370;47.712;9.082;2023-04-03T14:16:19;4.23;;;3.20;;
6667;SDS011;3370;47.712;9.082;2023-04-03T14:18:49;3.07;;;2.87;;
6667;SDS011;3370;47.712;9.082;2023-04-03T14:21:17;4.07;;;2.87;;
6667;SDS011;3370;47.712;9.082;2023-04-03T14:23:46;2.60;;;2.40;;
6667;SDS011;3370;47.712;9.082;2023-04-03T14:26:13;3.40;;;3.10;;
6667;SDS011;3370;47.712;9.082;2023-04-03T14:28:47;3.60;;;3.03;;
6667;SDS011;3370;47.712;9.082;2023-04-03T14:31:17;3.00;;;2.77;;
6667;SDS011;3370;47.712;9.082;2023-04-03T14:33:44;3.00;;;2.80;;
6667;SDS011;3370;47.712;9.082;2023-04-03T14:36:15;2.97;;;2.77;;
6667;SDS011;3370;47.712;9.082;2023-04-03T14:38:50;4.23;;;2.80;;
6667;SDS011;3370;47.712;9.082;2023-04-03T14:41:18;3.03;;;2.83;;
6667;SDS011;3370;47.712;9.082;2023-04-03T14:43:47;3.23;;;2.93;;
6667;SDS011;3370;47.712;9.082;2023-04-03T14:46:14;3.57;;;2.80;;
6667;SDS011;3370;47.712;9.082;2023-04-03T14:49:02;3.17;;;2.87;;
6667;SDS011;3370;47.712;9.082;2023-04-03T14:51:37;3.20;;;3.00;;
6667;SDS011;3370;47.712;9.082;2023-04-03T14:54:03;2.90;;;2.70;;
6667;SDS011;3370;47.712;9.082;2023-04-03T14:56:36;2.50;;;2.30;;
6667;SDS011;3370;47.712;9.082;2023-04-03T14:59:02;5.03;;;2.10;;
6667;SDS011;3370;47.712;9.082;2023-04-03T15:01:34;3.30;;;3.10;;
6667;SDS011;3370;47.712;9.082;2023-04-03T15:04:00;2.83;;;2.63;;
6667;SDS011;3370;47.712;9.082;2023-04-03T15:06:26;3.07;;;2.77;;
6667;SDS011;3370;47.712;9.082;2023-04-03T15:08:52;2.83;;;2.63;;
6667;SDS011;3370;47.712;9.082;2023-04-03T15:11:17;3.20;;;3.00;;
6667;SDS011;3370;47.712;9.082;2023-04-03T15:13:43;3.37;;;3.07;;
6667;SDS011;3370;47.712;9.082;2023-04-03T15:16:16;3.30;;;3.00;;
6667;SDS011;3370;47.712;9.082;2023-04-03T15:18:44;3.20;;;3.00;;
6667;SDS011;3370;47.712;9.082;2023-04-03T15:21:11;3.30;;;2.80;;
6667;SDS011;3370;47.712;9.082;2023-04-03T15:23:37;3.13;;;2.80;;
6667;SDS011;3370;47.712;9.082;2023-04-03T15:26:03;3.10;;;2.90;;
6667;SDS011;3370;47.712;9.082;2023-04-03T15:28:31;3.10;;;2.90;;
6667;SDS011;3370;47.712;9.082;2023-04-03T15:31:03;3.90;;;3.50;;
6667;SDS011;3370;47.712;9.082;2023-04-03T15:33:30;5.80;;;3.10;;
6667;SDS011;3370;47.712;9.082;2023-04-03T15:35:58;2.80;;;2.60;;
6667;SDS011;3370;47.712;9.082;2023-04-03T15:38:24;2.97;;;2.77;;
6667;SDS011;3370;47.712;9.082;2023-04-03T15:40:50;2.60;;;2.40;;
6667;SDS011;3370;47.712;9.082;2023-04-03T15:43:16;3.10;;;2.90;;
6667;SDS011;3370;47.712;9.082;2023-04-03T15:45:42;2.80;;;2.60;;
6667;SDS011;3370;47.712;9.082;2023-04-03T15:48:09;4.17;;;3.00;;
6667;SDS011;3370;47.712;9.082;2023-04-03T15:50:35;3.03;;;2.83;;
6667;SDS011;3370;47.712;9.082;2023-04-03T15:53:02;3.43;;;3.13;;
6667;SDS011;3370;47.712;9.082;2023-04-03T15:55:29;3.10;;;2.80;;
6667;SDS011;3370;47.712;9.082;2023-04-03T15:57:57;2.83;;;2.73;;
6667;SDS011;3370;47.712;9.082;2023-04-03T16:00:23;4.40;;;2.73;;
6667;SDS011;3370;47.712;9.082;2023-04-03T16:02:51;2.83;;;2.57;;
6667;SDS011;3370;47.712;9.082;2023-04-03T16:05:22;3.00;;;2.80;;
6667;SDS011;3370;47.712;9.082;2023-04-03T16:07:49;5.43;;;3.60;;
6667;SDS011;3370;47.712;9.082;2023-04-03T16:10:15;3.00;;;2.80;;
6667;SDS011;3370;47.712;9.082;2023-04-03T16:12:43;3.27;;;2.83;;
6667;SDS011;3370;47.712;9.082;2023-04-03T16:15:09;2.97;;;2.67;;
6667;SDS011;3370;47.712;9.082;2023-04-03T16:17:35;3.37;;;3.00;;
6667;SDS011;3370;47.712;9.082;2023-04-03T16:20:03;7.80;;;3.03;;
6667;SDS011;3370;47.712;9.082;2023-04-03T16:22:31;4.63;;;3.27;;
6667;SDS011;3370;47.712;9.082;2023-04-03T16:24:58;3.20;;;2.73;;
6667;SDS011;3370;47.712;9.082;2023-04-03T16:27:24;4.40;;;3.10;;
6667;SDS011;3370;47.712;9.082;2023-04-03T16:29:53;2.90;;;2.70;;
6667;SDS011;3370;47.712;9.082;2023-04-03T16:32:20;3.30;;;3.10;;
6667;SDS011;3370;47.712;9.082;2023-04-03T16:34:46;3.40;;;3.10;;
6667;SDS011;3370;47.712;9.082;2023-04-03T16:37:13;3.83;;;2.93;;
6667;SDS011;3370;47.712;9.082;2023-04-03T16:39:39;3.53;;;3.23;;
6667;SDS011;3370;47.712;9.082;2023-04-03T16:42:05;3.90;;;3.03;;
6667;SDS011;3370;47.712;9.082;2023-04-03T16:44:31;3.27;;;3.00;;
6667;SDS011;3370;47.712;9.082;2023-04-03T16:46:56;3.27;;;2.90;;
6667;SDS011;3370;47.712;9.082;2023-04-03T16:49:22;3.40;;;3.10;;
6667;SDS011;3370;47.712;9.082;2023-04-03T16:51:48;2.83;;;2.60;;
6667;SDS011;3370;47.712;9.082;2023-04-03T16:54:14;3.83;;;3.00;;
6667;SDS011;3370;47.712;9.082;2023-04-03T16:56:40;3.13;;;2.90;;
6667;SDS011;3370;47.712;9.082;2023-04-03T16:59:06;3.83;;;2.97;;
6667;SDS011;3370;47.712;9.082;2023-04-03T17:01:32;5.60;;;3.30;;
6667;SDS011;3370;47.712;9.082;2023-04-03T17:03:58;4.10;;;3.00;;
6667;SDS011;3370;47.712;9.082;2023-04-03T17:06:23;3.93;;;3.03;;
6667;SDS011;3370;47.712;9.082;2023-04-03T17:08:50;4.33;;;3.17;;
6667;SDS011;3370;47.712;9.082;2023-04-03T17:11:17;3.33;;;2.90;;
6667;SDS011;3370;47.712;9.082;2023-04-03T17:13:43;3.23;;;3.03;;
6667;SDS011;3370;47.712;9.082;2023-04-03T17:16:10;4.20;;;3.10;;
6667;SDS011;3370;47.712;9.082;2023-04-03T17:18:40;3.67;;;3.37;;